Observation data for Levelland on 12/09/2018      Previous  Date       Current Mesonet Observations  Soil Data  Daily Summary Page  Observations in Plain Language
KLD1 090600Z 28004KT M09/M10 A3029 RMK A01 T10911104  RH  091%=      5-min Rain = 0
KLD1 090605Z 27003KT M09/M11 A3029 RMK A01 T10931105  RH  090%=      5-min Rain = 0
KLD1 090610Z 26004KT M09/M11 A3029 RMK A01 T10941107  RH  090%=      5-min Rain = 0
KLD1 090615Z 27004KT M10/M11 A3029 RMK A01 T10951107  RH  090%=      5-min Rain = 0
KLD1 090620Z 27004KT M09/M11 A3029 RMK A01 T10941106  RH  090%=      5-min Rain = 0
KLD1 090625Z 28005KT M09/M11 A3029 RMK A01 T10941106  RH  090%=      5-min Rain = 0
KLD1 090630Z 28004KT M10/M11 A3029 RMK A01 T10961108  RH  090%=      5-min Rain = 0
KLD1 090635Z 28006KT M10/M11 A3029 RMK A01 T10961108  RH  090%=      5-min Rain = 0
KLD1 090640Z 29005KT M10/M11 A3029 RMK A01 T10951107  RH  090%=      5-min Rain = 0
KLD1 090645Z 29005KT M09/M10 A3029 RMK A01 T10921104  RH  091%=      5-min Rain = 0
KLD1 090650Z 29005KT M09/M10 A3028 RMK A01 T10921104  RH  091%=      5-min Rain = 0
KLD1 090655Z 29004KT M09/M10 A3028 RMK A01 T10921104  RH  090%=      5-min Rain = 0
KLD1 090700Z 29005KT M09/M10 A3028 RMK A01 T10921104  RH  090%=      5-min Rain = 0
KLD1 090705Z 29005KT M09/M10 A3028 RMK A01 T10921104  RH  090%=      5-min Rain = 0
KLD1 090710Z 27005KT M09/M11 A3028 RMK A01 T10931105  RH  090%=      5-min Rain = 0
KLD1 090715Z 27004KT M09/M11 A3028 RMK A01 T10941107  RH  090%=      5-min Rain = 0
KLD1 090720Z 28004KT M09/M11 A3028 RMK A01 T10941107  RH  090%=      5-min Rain = 0
KLD1 090725Z 27004KT M10/M11 A3028 RMK A01 T10951108  RH  090%=      5-min Rain = 0
KLD1 090730Z 29005KT M10/M11 A3027 RMK A01 T10961109  RH  090%=      5-min Rain = 0
KLD1 090735Z 29005KT M10/M11 A3027 RMK A01 T10961109  RH  090%=      5-min Rain = 0
KLD1 090740Z 29005KT M10/M11 A3027 RMK A01 T10951107  RH  090%=      5-min Rain = 0
KLD1 090745Z 29005KT M09/M11 A3027 RMK A01 T10941107  RH  090%=      5-min Rain = 0
KLD1 090750Z 30004KT M10/M11 A3027 RMK A01 T10951108  RH  090%=      5-min Rain = 0
KLD1 090755Z 30004KT M10/M11 A3027 RMK A01 T10961109  RH  090%=      5-min Rain = 0
KLD1 090800Z 30003KT M10/M11 A3027 RMK A01 T10961109  RH  090%=      5-min Rain = 0
KLD1 090805Z 29004KT M10/M11 A3027 RMK A01 T10961109  RH  090%=      5-min Rain = 0
KLD1 090810Z 29004KT M10/M11 A3028 RMK A01 T10961109  RH  090%=      5-min Rain = 0
KLD1 090815Z 29005KT M10/M11 A3028 RMK A01 T10951107  RH  090%=      5-min Rain = 0
KLD1 090820Z 28004KT M09/M11 A3027 RMK A01 T10941107  RH  090%=      5-min Rain = 0
KLD1 090825Z 28004KT M10/M11 A3028 RMK A01 T10981111  RH  089%=      5-min Rain = 0
KLD1 090830Z 28004KT M10/M11 A3028 RMK A01 T11001114  RH  089%=      5-min Rain = 0
KLD1 090835Z 28004KT M10/M12 A3028 RMK A01 T11011115  RH  089%=      5-min Rain = 0
KLD1 090840Z 29005KT M10/M12 A3028 RMK A01 T11021115  RH  089%=      5-min Rain = 0
KLD1 090845Z 29005KT M10/M12 A3028 RMK A01 T11021116  RH  089%=      5-min Rain = 0
KLD1 090850Z 30005KT M10/M11 A3028 RMK A01 T11001114  RH  089%=      5-min Rain = 0
KLD1 090855Z 30005KT M10/M11 A3028 RMK A01 T10981111  RH  090%=      5-min Rain = 0
KLD1 090900Z 31004KT M10/M11 A3028 RMK A01 T10971110  RH  090%=      5-min Rain = 0
KLD1 090905Z 30005KT M10/M11 A3028 RMK A01 T10971110  RH  090%=      5-min Rain = 0
KLD1 090910Z 30005KT M10/M11 A3028 RMK A01 T10961110  RH  090%=      5-min Rain = 0
KLD1 090915Z 31006KT M10/M11 A3027 RMK A01 T10951108  RH  090%=      5-min Rain = 0
KLD1 090920Z 31006KT M09/M11 A3027 RMK A01 T10941107  RH  090%=      5-min Rain = 0
KLD1 090925Z 31006KT M09/M11 A3027 RMK A01 T10931106  RH  090%=      5-min Rain = 0
KLD1 090930Z 30006KT M09/M11 A3027 RMK A01 T10931106  RH  090%=      5-min Rain = 0
KLD1 090935Z 31006KT M09/M10 A3027 RMK A01 T10921104  RH  090%=      5-min Rain = 0
KLD1 090940Z 31006KT M09/M10 A3027 RMK A01 T10891102  RH  090%=      5-min Rain = 0
KLD1 090945Z 31006KT M09/M10 A3027 RMK A01 T10871099  RH  091%=      5-min Rain = 0
KLD1 090950Z 31006KT M09/M10 A3027 RMK A01 T10871099  RH  091%=      5-min Rain = 0
KLD1 090955Z 31006KT M09/M10 A3027 RMK A01 T10881100  RH  090%=      5-min Rain = 0
KLD1 091000Z 31006KT M09/M10 A3027 RMK A01 T10881100  RH  090%=      5-min Rain = 0
KLD1 091005Z 31006KT M09/M10 A3028 RMK A01 T10891102  RH  090%=      5-min Rain = 0
KLD1 091010Z 31005KT M09/M10 A3028 RMK A01 T10911104  RH  090%=      5-min Rain = 0
KLD1 091015Z 31006KT M09/M10 A3028 RMK A01 T10911104  RH  090%=      5-min Rain = 0
KLD1 091020Z 31006KT M09/M10 A3028 RMK A01 T10911104  RH  090%=      5-min Rain = 0
KLD1 091025Z 31006KT M09/M10 A3028 RMK A01 T10911104  RH  090%=      5-min Rain = 0
KLD1 091030Z 31006KT M09/M10 A3028 RMK A01 T10901102  RH  090%=      5-min Rain = 0
KLD1 091035Z 31006KT M09/M10 A3028 RMK A01 T10881100  RH  090%=      5-min Rain = 0
KLD1 091040Z 30005KT M09/M10 A3028 RMK A01 T10891102  RH  090%=      5-min Rain = 0
KLD1 091045Z 30005KT M09/M10 A3028 RMK A01 T10891102  RH  090%=      5-min Rain = 0
KLD1 091050Z 31005KT M09/M10 A3028 RMK A01 T10891102  RH  090%=      5-min Rain = 0
KLD1 091055Z 30005KT M09/M10 A3028 RMK A01 T10901103  RH  090%=      5-min Rain = 0
KLD1 091100Z 31006KT M09/M10 A3028 RMK A01 T10911104  RH  090%=      5-min Rain = 0
KLD1 091105Z 30006KT M09/M10 A3028 RMK A01 T10911103  RH  090%=      5-min Rain = 0
KLD1 091110Z 30006KT M09/M10 A3028 RMK A01 T10901103  RH  090%=      5-min Rain = 0
KLD1 091115Z 31005KT M09/M10 A3028 RMK A01 T10901103  RH  090%=      5-min Rain = 0
KLD1 091120Z 31005KT M09/M10 A3028 RMK A01 T10901103  RH  090%=      5-min Rain = 0
KLD1 091125Z 31006KT M09/M10 A3029 RMK A01 T10901102  RH  090%=      5-min Rain = 0
KLD1 091130Z 31006KT M09/M10 A3029 RMK A01 T10881100  RH  090%=      5-min Rain = 0
KLD1 091135Z 31006KT M09/M10 A3029 RMK A01 T10881100  RH  090%=      5-min Rain = 0
KLD1 091140Z 31005KT M09/M10 A3029 RMK A01 T10891101  RH  090%=      5-min Rain = 0
KLD1 091145Z 31005KT M09/M10 A3029 RMK A01 T10901103  RH  090%=      5-min Rain = 0
KLD1 091150Z 31004KT M09/M11 A3029 RMK A01 T10921106  RH  090%=      5-min Rain = 0
KLD1 091155Z 32004KT M09/M11 A3029 RMK A01 T10941107  RH  089%=      5-min Rain = 0
KLD1 091200Z 31004KT M10/M11 A3029 RMK A01 T10951109  RH  089%=      5-min Rain = 0
KLD1 091205Z 30004KT M10/M11 A303 RMK A01 T10961110  RH  089%=      5-min Rain = 0
KLD1 091210Z 31004KT M10/M11 A303 RMK A01 T10971110  RH  089%=      5-min Rain = 0
KLD1 091215Z 31005KT M10/M11 A303 RMK A01 T10961109  RH  090%=      5-min Rain = 0
KLD1 091220Z 31005KT M09/M11 A303 RMK A01 T10941107  RH  090%=      5-min Rain = 0
KLD1 091225Z 31005KT M09/M11 A303 RMK A01 T10941107  RH  090%=      5-min Rain = 0
KLD1 091230Z 31005KT M09/M11 A303 RMK A01 T10941107  RH  090%=      5-min Rain = 0
KLD1 091235Z 31005KT M09/M11 A303 RMK A01 T10931107  RH  090%=      5-min Rain = 0
KLD1 091240Z 31004KT M09/M11 A303 RMK A01 T10931107  RH  090%=      5-min Rain = 0
KLD1 091245Z 30004KT M09/M11 A303 RMK A01 T10941107  RH  090%=      5-min Rain = 0
KLD1 091250Z 29003KT M10/M11 A3031 RMK A01 T10951108  RH  090%=      5-min Rain = 0
KLD1 091255Z 29004KT M10/M11 A3031 RMK A01 T10951109  RH  089%=      5-min Rain = 0
KLD1 091300Z 29004KT M10/M11 A3031 RMK A01 T10951108  RH  090%=      5-min Rain = 0
KLD1 091305Z 30005KT M09/M11 A3031 RMK A01 T10931106  RH  090%=      5-min Rain = 0
KLD1 091310Z 30005KT M09/M11 A3031 RMK A01 T10921105  RH  090%=      5-min Rain = 0
KLD1 091315Z 30005KT M09/M10 A3032 RMK A01 T10911104  RH  090%=      5-min Rain = 0
KLD1 091320Z 30005KT M09/M11 A3032 RMK A01 T10921105  RH  090%=      5-min Rain = 0
KLD1 091325Z 30005KT M09/M11 A3032 RMK A01 T10931106  RH  090%=      5-min Rain = 0
KLD1 091330Z 30005KT M09/M11 A3033 RMK A01 T10941108  RH  089%=      5-min Rain = 0
KLD1 091335Z 30004KT M10/M11 A3033 RMK A01 T10961109  RH  089%=      5-min Rain = 0
KLD1 091340Z 30005KT M10/M11 A3033 RMK A01 T10961110  RH  089%=      5-min Rain = 0
KLD1 091345Z 31005KT M10/M11 A3034 RMK A01 T10961110  RH  089%=      5-min Rain = 0
KLD1 091350Z 31005KT M10/M11 A3034 RMK A01 T10971111  RH  089%=      5-min Rain = 0
KLD1 091355Z 30004KT M10/M11 A3034 RMK A01 T10971111  RH  089%=      5-min Rain = 0
KLD1 091400Z 31004KT M10/M11 A3034 RMK A01 T10981111  RH  089%=      5-min Rain = 0
KLD1 091405Z 30004KT M10/M11 A3034 RMK A01 T10971111  RH  089%=      5-min Rain = 0
KLD1 091410Z 30004KT M10/M11 A3034 RMK A01 T10961110  RH  089%=      5-min Rain = 0
KLD1 091415Z 31005KT M10/M11 A3034 RMK A01 T10951109  RH  089%=      5-min Rain = 0
KLD1 091420Z 31005KT M09/M11 A3035 RMK A01 T10921106  RH  090%=      5-min Rain = 0
KLD1 091425Z 31004KT M09/M10 A3035 RMK A01 T10901103  RH  090%=      5-min Rain = 0
KLD1 091430Z 31002KT M09/M10 A3035 RMK A01 T10871101  RH  090%=      5-min Rain = 0
KLD1 091435Z 30002KT M08/M09 A3035 RMK A01 T10801092  RH  091%=      5-min Rain = 0
KLD1 091440Z 31002KT M08/M09 A3035 RMK A01 T10761087  RH  091%=      5-min Rain = 0
KLD1 091445Z 31002KT M08/M09 A3035 RMK A01 T10751088  RH  091%=      5-min Rain = 0
KLD1 091450Z 33003KT M08/M09 A3036 RMK A01 T10751088  RH  090%=      5-min Rain = 0
KLD1 091455Z 33003KT M07/M09 A3036 RMK A01 T10731087  RH  090%=      5-min Rain = 0
KLD1 091500Z 34002KT M07/M09 A3036 RMK A01 T10721085  RH  090%=      5-min Rain = 0
KLD1 091505Z 34002KT M07/M08 A3036 RMK A01 T10701083  RH  090%=      5-min Rain = 0
KLD1 091510Z 35002KT M07/M08 A3036 RMK A01 T10681081  RH  090%=      5-min Rain = 0
KLD1 091515Z 32001KT M07/M08 A3036 RMK A01 T10651078  RH  091%=      5-min Rain = 0
KLD1 091520Z 31002KT M06/M08 A3037 RMK A01 T10621075  RH  091%=      5-min Rain = 0
KLD1 091525Z 31001KT M06/M07 A3037 RMK A01 T10601072  RH  091%=      5-min Rain = 0
KLD1 091530Z 29002KT M06/M07 A3037 RMK A01 T10571070  RH  091%=      5-min Rain = 0
KLD1 091535Z 28002KT M06/M07 A3038 RMK A01 T10551067  RH  091%=      5-min Rain = 0
KLD1 091540Z 27001KT M05/M07 A3038 RMK A01 T10541066  RH  091%=      5-min Rain = 0
KLD1 091545Z 27001KT M05/M06 A3038 RMK A01 T10531064  RH  092%=      5-min Rain = 0
KLD1 091550Z 27002KT M05/M06 A3039 RMK A01 T10501061  RH  092%=      5-min Rain = 0
KLD1 091555Z 27002KT M05/M06 A3039 RMK A01 T10471058  RH  092%=      5-min Rain = 0
KLD1 091600Z 29003KT M04/M06 A3039 RMK A01 T10441055  RH  092%=      5-min Rain = 0
KLD1 091605Z 29002KT M04/M05 A3039 RMK A01 T10421052  RH  093%=      5-min Rain = 0
KLD1 091610Z 29002KT M04/M05 A3039 RMK A01 T10391049  RH  093%=      5-min Rain = 0
KLD1 091615Z 29003KT M04/M05 A3039 RMK A01 T10391049  RH  093%=      5-min Rain = 0
KLD1 091620Z 29002KT M04/M05 A3039 RMK A01 T10361047  RH  093%=      5-min Rain = 0
KLD1 091625Z 29003KT M03/M05 A3039 RMK A01 T10341045  RH  093%=      5-min Rain = 0
KLD1 091630Z 30003KT M03/M04 A3039 RMK A01 T10331044  RH  093%=      5-min Rain = 0
KLD1 091635Z 30004KT M03/M04 A3039 RMK A01 T10321042  RH  093%=      5-min Rain = 0
KLD1 091640Z 30003KT M03/M04 A3039 RMK A01 T10291040  RH  093%=      5-min Rain = 0
KLD1 091645Z 30004KT M03/M04 A3039 RMK A01 T10261037  RH  093%=      5-min Rain = 0
KLD1 091650Z 31004KT M03/M04 A3039 RMK A01 T10251036  RH  093%=      5-min Rain = 0
KLD1 091655Z 30003KT M02/M03 A3039 RMK A01 T10221033  RH  093%=      5-min Rain = 0
KLD1 091700Z 31003KT M02/M03 A3039 RMK A01 T10201031  RH  093%=      5-min Rain = 0.01
KLD1 091705Z 29003KT M02/M03 A3039 RMK A01 T10171028  RH  093%=      5-min Rain = 0
KLD1 091710Z 30003KT M02/M03 A3039 RMK A01 T10171027  RH  093%=      5-min Rain = 0
KLD1 091715Z 29004KT M02/M03 A3039 RMK A01 T10151026  RH  093%=      5-min Rain = 0
KLD1 091720Z 28004KT M01/M02 A3039 RMK A01 T10131023  RH  093%=      5-min Rain = 0
KLD1 091725Z 28003KT M01/M02 A3039 RMK A01 T10101020  RH  093%=      5-min Rain = 0
KLD1 091730Z 29004KT M01/M02 A3039 RMK A01 T10081019  RH  093%=      5-min Rain = 0
KLD1 091735Z 29004KT M01/M02 A3039 RMK A01 T10071018  RH  093%=      5-min Rain = 0
KLD1 091740Z 29004KT M01/M02 A3039 RMK A01 T10061017  RH  093%=      5-min Rain = 0
KLD1 091745Z 29004KT M01/M02 A3038 RMK A01 T10051016  RH  093%=      5-min Rain = 0
KLD1 091750Z 29004KT M00/M02 A3038 RMK A01 T10041015  RH  093%=      5-min Rain = 0
KLD1 091755Z 29004KT M00/M02 A3038 RMK A01 T10031015  RH  093%=      5-min Rain = 0
KLD1 091800Z 29004KT M00/M01 A3038 RMK A01 T10021014  RH  092%=      5-min Rain = 0
KLD1 091805Z 30004KT 00/01 A3038 RMK A01 T00-00-13  RH  092%=      5-min Rain = 0
KLD1 091810Z 30004KT 00/M01 A3037 RMK A01 T00011012  RH  092%=      5-min Rain = 0
KLD1 091815Z 29003KT 00/M01 A3037 RMK A01 T00021010  RH  092%=      5-min Rain = 0
KLD1 091820Z 29003KT 00/M01 A3037 RMK A01 T00041009  RH  092%=      5-min Rain = 0
KLD1 091825Z 28003KT 01/M01 A3037 RMK A01 T00061007  RH  092%=      5-min Rain = 0
KLD1 091830Z 28003KT 01/M01 A3036 RMK A01 T00071006  RH  092%=      5-min Rain = 0
KLD1 091835Z 28003KT 01/M00 A3036 RMK A01 T00091004  RH  092%=      5-min Rain = 0
KLD1 091840Z 28003KT 01/M00 A3036 RMK A01 T00111003  RH  092%=      5-min Rain = 0
KLD1 091845Z 29003KT 01/00 A3035 RMK A01 T001300-0  RH  092%=      5-min Rain = 0
KLD1 091850Z 29003KT 01/00 A3035 RMK A01 T001400-0  RH  092%=      5-min Rain = 0
KLD1 091855Z 29004KT 01/M00 A3035 RMK A01 T00141001  RH  091%=      5-min Rain = 0
KLD1 091900Z 28003KT 02/00 A3035 RMK A01 T00150000  RH  091%=      5-min Rain = 0
KLD1 091905Z 29003KT 02/00 A3035 RMK A01 T00170001  RH  090%=      5-min Rain = 0
KLD1 091910Z 28003KT 02/00 A3035 RMK A01 T00180001  RH  090%=      5-min Rain = 0
KLD1 091915Z 27002KT 02/00 A3035 RMK A01 T00200002  RH  089%=      5-min Rain = 0
KLD1 091920Z 27002KT 02/00 A3035 RMK A01 T00210000  RH  087%=      5-min Rain = 0
KLD1 091925Z 28002KT 02/00 A3035 RMK A01 T002300-0  RH  086%=      5-min Rain = 0
KLD1 091930Z 29002KT 03/00 A3034 RMK A01 T002500-0  RH  084%=      5-min Rain = 0
KLD1 091935Z 29002KT 03/M00 A3034 RMK A01 T00281001  RH  082%=      5-min Rain = 0
KLD1 091940Z 27002KT 03/M00 A3034 RMK A01 T00311003  RH  079%=      5-min Rain = 0
KLD1 091945Z 27002KT 03/M01 A3034 RMK A01 T00341006  RH  076%=      5-min Rain = 0
KLD1 091950Z 28001KT 04/M01 A3034 RMK A01 T00381009  RH  072%=      5-min Rain = 0
KLD1 091955Z 29002KT 04/M01 A3034 RMK A01 T00411011  RH  069%=      5-min Rain = 0
KLD1 092000Z 29002KT 04/M01 A3033 RMK A01 T00421012  RH  069%=      5-min Rain = 0
KLD1 092005Z 28002KT 04/M02 A3033 RMK A01 T00411015  RH  068%=      5-min Rain = 0
KLD1 092010Z 29002KT 04/M02 A3033 RMK A01 T00401015  RH  068%=      5-min Rain = 0
KLD1 092015Z 29003KT 04/M02 A3033 RMK A01 T00391017  RH  067%=      5-min Rain = 0
KLD1 092020Z 29002KT 04/M02 A3033 RMK A01 T00391016  RH  068%=      5-min Rain = 0
KLD1 092025Z 26001KT 04/M01 A3033 RMK A01 T00431014  RH  067%=      5-min Rain = 0
KLD1 092030Z 25002KT 05/M01 A3033 RMK A01 T00461014  RH  066%=      5-min Rain = 0
KLD1 092035Z 24002KT 05/M01 A3033 RMK A01 T00461014  RH  066%=      5-min Rain = 0
KLD1 092040Z 24002KT 04/M02 A3034 RMK A01 T00441016  RH  066%=      5-min Rain = 0
KLD1 092045Z 25003KT 04/M02 A3034 RMK A01 T00421016  RH  066%=      5-min Rain = 0
KLD1 092050Z 26003KT 04/M02 A3034 RMK A01 T00421015  RH  067%=      5-min Rain = 0
KLD1 092055Z 26003KT 04/M02 A3034 RMK A01 T00411015  RH  068%=      5-min Rain = 0
KLD1 092100Z 26003KT 04/M01 A3033 RMK A01 T00411014  RH  068%=      5-min Rain = 0
KLD1 092105Z 25003KT 04/M01 A3033 RMK A01 T00411014  RH  068%=      5-min Rain = 0
KLD1 092110Z 25003KT 04/M01 A3033 RMK A01 T00401014  RH  068%=      5-min Rain = 0
KLD1 092115Z 26002KT 04/M01 A3033 RMK A01 T00421013  RH  068%=      5-min Rain = 0
KLD1 092120Z 24003KT 04/M01 A3033 RMK A01 T00431013  RH  068%=      5-min Rain = 0
KLD1 092125Z 25002KT 04/M01 A3033 RMK A01 T00421013  RH  068%=      5-min Rain = 0
KLD1 092130Z 24002KT 04/M01 A3033 RMK A01 T00431013  RH  068%=      5-min Rain = 0
KLD1 092135Z 24002KT 04/M01 A3033 RMK A01 T00431012  RH  068%=      5-min Rain = 0
KLD1 092140Z 24001KT 05/M01 A3033 RMK A01 T00461011  RH  067%=      5-min Rain = 0
KLD1 092145Z 25001KT 05/M01 A3033 RMK A01 T00501011  RH  065%=      5-min Rain = 0
KLD1 092150Z 27001KT 05/M01 A3033 RMK A01 T00531011  RH  064%=      5-min Rain = 0
KLD1 092155Z 28002KT 05/M01 A3033 RMK A01 T00521012  RH  064%=      5-min Rain = 0
KLD1 092200Z 27002KT 05/M01 A3033 RMK A01 T00501013  RH  064%=      5-min Rain = 0
KLD1 092205Z 26001KT 05/M01 A3033 RMK A01 T00481012  RH  065%=      5-min Rain = 0
KLD1 092210Z 26001KT 05/M01 A3033 RMK A01 T00501013  RH  064%=      5-min Rain = 0
KLD1 092215Z 24001KT 05/M01 A3033 RMK A01 T00511013  RH  064%=      5-min Rain = 0
KLD1 092220Z 25002KT 05/M01 A3034 RMK A01 T00491014  RH  064%=      5-min Rain = 0
KLD1 092225Z 26001KT 05/M01 A3034 RMK A01 T00491013  RH  065%=      5-min Rain = 0
KLD1 092230Z 24001KT 05/M01 A3033 RMK A01 T00521014  RH  063%=      5-min Rain = 0
KLD1 092235Z 23002KT 05/M02 A3033 RMK A01 T00491016  RH  063%=      5-min Rain = 0
KLD1 092240Z 23001KT 05/M02 A3033 RMK A01 T00491016  RH  063%=      5-min Rain = 0
KLD1 092245Z 22001KT 05/M02 A3033 RMK A01 T00521016  RH  062%=      5-min Rain = 0
KLD1 092250Z 20001KT 05/M02 A3033 RMK A01 T00521016  RH  062%=      5-min Rain = 0
KLD1 092255Z 20001KT 05/M02 A3033 RMK A01 T00521015  RH  062%=      5-min Rain = 0
KLD1 092300Z 20000KT 05/M02 A3033 RMK A01 T00501016  RH  063%=      5-min Rain = 0
KLD1 092305Z 20001KT 05/M02 A3033 RMK A01 T00501016  RH  063%=      5-min Rain = 0
KLD1 092310Z 20001KT 05/M02 A3033 RMK A01 T00461017  RH  064%=      5-min Rain = 0
KLD1 092315Z 20001KT 04/M02 A3034 RMK A01 T00431017  RH  066%=      5-min Rain = 0
KLD1 092320Z 00000KT 04/M02 A3034 RMK A01 T00411019  RH  065%=      5-min Rain = 0
KLD1 092325Z 07001KT 03/M03 A3034 RMK A01 T00271026  RH  069%=      5-min Rain = 0
KLD1 092330Z 08002KT 02/M03 A3034 RMK A01 T00151028  RH  074%=      5-min Rain = 0
KLD1 092335Z 10002KT 01/M03 A3034 RMK A01 T00101028  RH  077%=      5-min Rain = 0
KLD1 092340Z 10001KT 01/M03 A3034 RMK A01 T00071026  RH  079%=      5-min Rain = 0
KLD1 092345Z 11000KT 01/M03 A3034 RMK A01 T00061025  RH  080%=      5-min Rain = 0
KLD1 092350Z 15002KT 00/M03 A3034 RMK A01 T00041025  RH  082%=      5-min Rain = 0
KLD1 092355Z 14002KT 00/M02 A3034 RMK A01 T00041023  RH  083%=      5-min Rain = 0
KLD1 100000Z 12002KT M00/M03 A3034 RMK A01 T10011030  RH  081%=      5-min Rain = 0
KLD1 100005Z 13002KT M01/M03 A3033 RMK A01 T10051032  RH  083%=      5-min Rain = 0
KLD1 100010Z 13002KT M01/M03 A3034 RMK A01 T10081032  RH  084%=      5-min Rain = 0
KLD1 100015Z 13001KT M01/M03 A3034 RMK A01 T10111034  RH  085%=      5-min Rain = 0
KLD1 100020Z 13002KT M01/M04 A3034 RMK A01 T10131035  RH  086%=      5-min Rain = 0
KLD1 100025Z 13002KT M02/M04 A3034 RMK A01 T10161036  RH  086%=      5-min Rain = 0
KLD1 100030Z 13001KT M02/M04 A3034 RMK A01 T10161035  RH  088%=      5-min Rain = 0
KLD1 100035Z 13001KT M01/M03 A3034 RMK A01 T10131030  RH  089%=      5-min Rain = 0
KLD1 100040Z 15001KT M02/M03 A3034 RMK A01 T10151032  RH  089%=      5-min Rain = 0
KLD1 100045Z 17003KT M02/M04 A3033 RMK A01 T10181036  RH  089%=      5-min Rain = 0
KLD1 100050Z 18004KT M02/M04 A3033 RMK A01 T10241041  RH  088%=      5-min Rain = 0
KLD1 100055Z 18004KT M03/M04 A3033 RMK A01 T10251040  RH  089%=      5-min Rain = 0
KLD1 100100Z 19004KT M03/M04 A3034 RMK A01 T10261042  RH  089%=      5-min Rain = 0
KLD1 100105Z 19004KT M03/M05 A3033 RMK A01 T10291045  RH  089%=      5-min Rain = 0
KLD1 100110Z 19005KT M03/M04 A3034 RMK A01 T10281042  RH  090%=      5-min Rain = 0
KLD1 100115Z 19005KT M03/M05 A3034 RMK A01 T10311046  RH  090%=      5-min Rain = 0
KLD1 100120Z 20005KT M03/M05 A3034 RMK A01 T10321046  RH  090%=      5-min Rain = 0
KLD1 100125Z 21005KT M03/M04 A3034 RMK A01 T10281041  RH  091%=      5-min Rain = 0
KLD1 100130Z 21003KT M03/M04 A3035 RMK A01 T10291042  RH  091%=      5-min Rain = 0
KLD1 100135Z 22002KT M04/M05 A3035 RMK A01 T10351050  RH  090%=      5-min Rain = 0
KLD1 100140Z 22003KT M04/M06 A3035 RMK A01 T10411057  RH  089%=      5-min Rain = 0
KLD1 100145Z 22003KT M05/M07 A3035 RMK A01 T10491065  RH  089%=      5-min Rain = 0
KLD1 100150Z 22005KT M05/M07 A3036 RMK A01 T10521067  RH  090%=      5-min Rain = 0
KLD1 100155Z 23005KT M06/M07 A3036 RMK A01 T10551068  RH  090%=      5-min Rain = 0
KLD1 100200Z 24003KT M05/M07 A3036 RMK A01 T10541067  RH  091%=      5-min Rain = 0
KLD1 100205Z 24003KT M05/M07 A3036 RMK A01 T10531065  RH  091%=      5-min Rain = 0
KLD1 100210Z 24004KT M06/M07 A3036 RMK A01 T10561068  RH  091%=      5-min Rain = 0
KLD1 100215Z 24004KT M06/M07 A3036 RMK A01 T10571068  RH  091%=      5-min Rain = 0
KLD1 100220Z 26003KT M06/M07 A3037 RMK A01 T10561067  RH  092%=      5-min Rain = 0
KLD1 100225Z 25004KT M05/M07 A3036 RMK A01 T10541065  RH  092%=      5-min Rain = 0
KLD1 100230Z 24005KT M06/M07 A3036 RMK A01 T10551065  RH  092%=      5-min Rain = 0
KLD1 100235Z 25005KT M06/M07 A3037 RMK A01 T10551065  RH  093%=      5-min Rain = 0
KLD1 100240Z 26005KT M06/M07 A3037 RMK A01 T10561067  RH  093%=      5-min Rain = 0
KLD1 100245Z 27003KT M06/M07 A3037 RMK A01 T10591069  RH  093%=      5-min Rain = 0
KLD1 100250Z 28003KT M06/M07 A3037 RMK A01 T10611072  RH  093%=      5-min Rain = 0
KLD1 100255Z 27003KT M06/M07 A3037 RMK A01 T10611072  RH  093%=      5-min Rain = 0
KLD1 100300Z 27003KT M06/M07 A3037 RMK A01 T10601070  RH  093%=      5-min Rain = 0
KLD1 100305Z 28003KT M06/M07 A3038 RMK A01 T10621071  RH  093%=      5-min Rain = 0
KLD1 100310Z 28003KT M06/M07 A3038 RMK A01 T10631073  RH  093%=      5-min Rain = 0
KLD1 100315Z 28004KT M07/M08 A3038 RMK A01 T10671076  RH  093%=      5-min Rain = 0
KLD1 100320Z 28004KT M07/M08 A3038 RMK A01 T10691079  RH  093%=      5-min Rain = 0
KLD1 100325Z 28004KT M07/M08 A3038 RMK A01 T10701079  RH  093%=      5-min Rain = 0
KLD1 100330Z 29004KT M07/M08 A3038 RMK A01 T10681078  RH  093%=      5-min Rain = 0
KLD1 100335Z 28005KT M07/M08 A3038 RMK A01 T10691079  RH  093%=      5-min Rain = 0
KLD1 100340Z 28005KT M07/M08 A3038 RMK A01 T10711081  RH  093%=      5-min Rain = 0
KLD1 100345Z 28005KT M07/M08 A3038 RMK A01 T10721082  RH  093%=      5-min Rain = 0
KLD1 100350Z 28006KT M07/M08 A3038 RMK A01 T10721082  RH  093%=      5-min Rain = 0
KLD1 100355Z 28006KT M07/M08 A3038 RMK A01 T10721082  RH  093%=      5-min Rain = 0
KLD1 100400Z 28006KT M07/M08 A3038 RMK A01 T10721082  RH  093%=      5-min Rain = 0
KLD1 100405Z 28006KT M07/M08 A3038 RMK A01 T10731083  RH  092%=      5-min Rain = 0
KLD1 100410Z 28007KT M07/M08 A3038 RMK A01 T10741084  RH  092%=      5-min Rain = 0
KLD1 100415Z 28007KT M08/M09 A3039 RMK A01 T10771088  RH  092%=      5-min Rain = 0
KLD1 100420Z 28007KT M08/M09 A3039 RMK A01 T10771088  RH  092%=      5-min Rain = 0
KLD1 100425Z 28007KT M08/M09 A3039 RMK A01 T10751085  RH  092%=      5-min Rain = 0
KLD1 100430Z 28007KT M07/M08 A3039 RMK A01 T10731083  RH  092%=      5-min Rain = 0
KLD1 100435Z 28006KT M07/M08 A3039 RMK A01 T10711081  RH  092%=      5-min Rain = 0
KLD1 100440Z 28006KT M07/M08 A3039 RMK A01 T10701081  RH  092%=      5-min Rain = 0
KLD1 100445Z 28006KT M07/M08 A3039 RMK A01 T10691079  RH  092%=      5-min Rain = 0
KLD1 100450Z 28007KT M07/M08 A3039 RMK A01 T10671078  RH  092%=      5-min Rain = 0
KLD1 100455Z 29007KT M06/M07 A3039 RMK A01 T10631073  RH  093%=      5-min Rain = 0
KLD1 100500Z 29007KT M06/M07 A3039 RMK A01 T10601070  RH  093%=      5-min Rain = 0
KLD1 100505Z 29007KT M06/M07 A3039 RMK A01 T10601070  RH  093%=      5-min Rain = 0
KLD1 100510Z 29007KT M06/M07 A3039 RMK A01 T10591070  RH  092%=      5-min Rain = 0
KLD1 100515Z 29006KT M06/M07 A3039 RMK A01 T10611072  RH  092%=      5-min Rain = 0
KLD1 100520Z 28006KT M06/M08 A3038 RMK A01 T10641075  RH  092%=      5-min Rain = 0
KLD1 100525Z 28006KT M07/M08 A3038 RMK A01 T10651076  RH  092%=      5-min Rain = 0
KLD1 100530Z 28006KT M07/M08 A3038 RMK A01 T10691081  RH  091%=      5-min Rain = 0
KLD1 100535Z 27006KT M07/M08 A3038 RMK A01 T10711083  RH  091%=      5-min Rain = 0
KLD1 100540Z 27007KT M07/M08 A3038 RMK A01 T10671079  RH  092%=      5-min Rain = 0
KLD1 100545Z 27007KT M07/M08 A3038 RMK A01 T10661077  RH  092%=      5-min Rain = 0
KLD1 100550Z 27008KT M07/M08 A3038 RMK A01 T10701081  RH  091%=      5-min Rain = 0
KLD1 100555Z 27007KT M07/M08 A3038 RMK A01 T10701082  RH  091%=      5-min Rain = 0

Page generated in 0.0125 seconds.